createdAt,value
2018-12-17T00:00:12.413Z,94.20
2018-12-17T00:02:40.805Z,121.42
2018-12-17T00:05:09.074Z,106.60
2018-12-17T00:07:37.542Z,94.85
2018-12-17T00:10:06.438Z,97.85
2018-12-17T00:12:34.751Z,92.37
2018-12-17T00:15:02.903Z,94.30
2018-12-17T00:17:31.108Z,99.30
2018-12-17T00:19:59.414Z,114.67
2018-12-17T00:22:27.582Z,88.42
2018-12-17T00:24:55.850Z,97.12
2018-12-17T00:27:24.403Z,103.00
2018-12-17T00:29:52.753Z,107.30
2018-12-17T00:32:21.068Z,106.52
2018-12-17T00:34:49.240Z,103.58
2018-12-17T00:37:17.547Z,94.90
2018-12-17T00:39:45.834Z,83.47
2018-12-17T00:42:20.712Z,83.22
2018-12-17T00:44:48.936Z,91.70
2018-12-17T00:47:17.137Z,89.62
2018-12-17T00:49:45.402Z,71.80
2018-12-17T00:52:13.588Z,118.05
2018-12-17T00:54:41.806Z,85.30
2018-12-17T00:57:09.975Z,101.00
2018-12-17T00:59:38.183Z,94.45
2018-12-17T01:02:06.418Z,85.80
2018-12-17T01:04:34.728Z,70.25
2018-12-17T01:07:02.891Z,80.07
2018-12-17T01:09:31.090Z,102.85
2018-12-17T01:11:59.376Z,75.72
2018-12-17T01:14:27.635Z,88.42
2018-12-17T01:16:56.011Z,76.92
2018-12-17T01:19:24.202Z,71.07
2018-12-17T01:21:52.717Z,76.75
2018-12-17T01:24:20.946Z,77.17
2018-12-17T01:26:49.113Z,70.17
2018-12-17T01:29:17.310Z,72.10
2018-12-17T01:31:45.491Z,76.85
2018-12-17T01:34:13.683Z,88.27
2018-12-17T01:36:41.970Z,61.13
2018-12-17T01:39:10.163Z,76.92
2018-12-17T01:41:38.422Z,77.32
2018-12-17T01:44:06.690Z,81.60
2018-12-17T01:46:34.934Z,96.05
2018-12-17T01:49:03.203Z,83.55
2018-12-17T01:51:31.459Z,73.52
2018-12-17T01:53:59.699Z,80.75
2018-12-17T01:56:27.907Z,80.22
2018-12-17T01:58:56.235Z,77.45
2018-12-17T02:01:24.437Z,80.72
2018-12-17T02:03:52.722Z,61.70
2018-12-17T02:06:20.910Z,78.95
2018-12-17T02:08:49.189Z,73.45
2018-12-17T02:11:17.404Z,77.53
2018-12-17T02:13:45.982Z,72.45
2018-12-17T02:16:14.184Z,72.37
2018-12-17T02:18:42.330Z,72.70
2018-12-17T02:21:10.734Z,79.45
2018-12-17T02:23:38.899Z,86.05
2018-12-17T02:26:07.144Z,75.03
2018-12-17T02:28:36.311Z,71.42
2018-12-17T02:31:04.812Z,68.65
2018-12-17T02:33:33.029Z,67.78
2018-12-17T02:36:01.211Z,68.75
2018-12-17T02:38:29.413Z,77.67
2018-12-17T02:40:57.890Z,85.45
2018-12-17T02:43:26.283Z,69.85
2018-12-17T02:45:54.514Z,67.10
2018-12-17T02:48:22.730Z,83.47
2018-12-17T02:50:50.990Z,58.65
2018-12-17T02:53:19.362Z,75.20
2018-12-17T02:55:47.602Z,70.52
2018-12-17T02:58:15.860Z,65.03
2018-12-17T03:00:44.104Z,79.50
2018-12-17T03:03:12.371Z,70.10
2018-12-17T03:05:40.703Z,71.07
2018-12-17T03:08:08.932Z,60.35
2018-12-17T03:10:37.766Z,58.68
2018-12-17T03:13:06.045Z,77.08
2018-12-17T03:15:34.351Z,81.00
2018-12-17T03:18:02.691Z,77.30
2018-12-17T03:20:30.991Z,86.60
2018-12-17T03:22:59.274Z,77.97
2018-12-17T03:25:27.570Z,86.72
2018-12-17T03:27:55.744Z,91.65
2018-12-17T03:30:23.972Z,74.75
2018-12-17T03:32:52.216Z,78.75
2018-12-17T03:35:20.408Z,77.32
2018-12-17T03:37:48.596Z,85.95
2018-12-17T03:40:16.779Z,88.12
2018-12-17T03:42:44.984Z,86.90
2018-12-17T03:45:13.335Z,82.92
2018-12-17T03:47:41.564Z,89.35
2018-12-17T03:50:09.887Z,77.58
2018-12-17T03:52:38.064Z,103.50
2018-12-17T03:55:06.437Z,66.20
2018-12-17T03:57:34.621Z,89.55
2018-12-17T04:00:03.036Z,74.85
2018-12-17T04:02:31.275Z,79.90
2018-12-17T04:04:59.656Z,67.75
2018-12-17T04:07:28.204Z,86.90
2018-12-17T04:09:56.724Z,82.55
2018-12-17T04:12:25.112Z,86.87
2018-12-17T04:14:53.384Z,67.12
2018-12-17T04:17:21.855Z,64.60
2018-12-17T04:19:50.031Z,58.50
2018-12-17T04:22:18.346Z,75.78
2018-12-17T04:24:46.606Z,67.22
2018-12-17T04:27:14.799Z,64.22
2018-12-17T04:29:43.077Z,66.37
2018-12-17T04:32:11.408Z,56.23
2018-12-17T04:34:39.599Z,57.90
2018-12-17T04:37:07.836Z,58.95
2018-12-17T04:39:36.026Z,68.17
2018-12-17T04:42:04.455Z,67.85
2018-12-17T04:44:32.638Z,72.27
2018-12-17T04:47:00.911Z,56.50
2018-12-17T04:49:29.125Z,57.50
2018-12-17T04:51:57.471Z,70.28
2018-12-17T04:54:25.991Z,66.77
2018-12-17T04:56:54.168Z,79.37
2018-12-17T04:59:22.396Z,67.78
2018-12-17T05:01:50.607Z,63.50
2018-12-17T05:04:18.791Z,68.42
2018-12-17T05:06:46.978Z,61.35
2018-12-17T05:09:15.222Z,70.75
2018-12-17T05:11:43.441Z,61.20
2018-12-17T05:14:11.670Z,52.67
2018-12-17T05:16:39.986Z,61.13
2018-12-17T05:19:08.180Z,61.68
2018-12-17T05:21:36.491Z,68.55
2018-12-17T05:24:04.750Z,80.77
2018-12-17T05:26:33.040Z,59.00
2018-12-17T05:29:01.244Z,45.35
2018-12-17T05:31:29.465Z,64.70
2018-12-17T05:33:57.842Z,66.45
2018-12-17T05:36:26.466Z,69.42
2018-12-17T05:38:54.624Z,66.47
2018-12-17T05:41:22.964Z,71.67
2018-12-17T05:43:51.192Z,65.65
2018-12-17T05:46:19.474Z,54.80
2018-12-17T05:48:47.711Z,60.75
2018-12-17T05:51:15.982Z,60.05
2018-12-17T05:53:44.253Z,59.50
2018-12-17T05:56:12.631Z,63.48
2018-12-17T05:58:40.820Z,72.80
2018-12-17T06:01:09.071Z,67.62
2018-12-17T06:03:37.263Z,64.35
2018-12-17T06:06:05.491Z,50.92
2018-12-17T06:08:33.706Z,71.35
2018-12-17T06:11:01.892Z,62.98
2018-12-17T06:13:30.114Z,46.08
2018-12-17T06:15:58.342Z,74.85
2018-12-17T06:18:26.529Z,72.92
2018-12-17T06:20:55.032Z,78.35
2018-12-17T06:23:23.228Z,65.10
2018-12-17T06:25:51.543Z,64.87
2018-12-17T06:28:19.737Z,67.87
2018-12-17T06:30:48.087Z,70.30
2018-12-17T06:33:16.214Z,70.92
2018-12-17T06:35:44.427Z,65.52
2018-12-17T06:38:12.891Z,65.37
2018-12-17T06:40:41.143Z,64.72
2018-12-17T06:43:09.459Z,75.60
2018-12-17T06:45:37.826Z,74.65
2018-12-17T06:48:05.973Z,70.28
2018-12-17T06:50:34.151Z,75.42
2018-12-17T06:53:02.352Z,78.50
2018-12-17T06:55:30.485Z,67.85
2018-12-17T06:57:59.014Z,96.12
2018-12-17T07:00:27.199Z,67.58
2018-12-17T07:02:55.480Z,96.00
2018-12-17T07:05:23.684Z,70.45
2018-12-17T07:07:51.899Z,74.70
2018-12-17T07:10:20.142Z,69.58
2018-12-17T07:12:48.305Z,72.17
2018-12-17T07:15:16.891Z,76.05
2018-12-17T07:17:45.165Z,74.32
2018-12-17T07:20:13.404Z,77.25
2018-12-17T07:22:41.596Z,62.00
2018-12-17T07:25:09.782Z,77.10
2018-12-17T07:27:37.960Z,77.92
2018-12-17T07:30:06.728Z,63.10
2018-12-17T07:32:34.955Z,79.22
2018-12-17T07:35:03.261Z,77.20
2018-12-17T07:39:00.663Z,83.62
2018-12-17T07:41:28.916Z,60.17
2018-12-17T07:43:57.236Z,63.02
2018-12-17T07:46:25.493Z,58.75
2018-12-17T07:48:53.756Z,68.05
2018-12-17T07:51:22.134Z,90.22
2018-12-17T07:53:50.399Z,72.25
2018-12-17T07:56:18.565Z,70.12
2018-12-17T07:58:46.890Z,87.08
2018-12-17T08:01:15.127Z,67.25
2018-12-17T08:03:43.435Z,73.47
2018-12-17T08:06:11.596Z,79.27
2018-12-17T08:08:39.888Z,68.87
2018-12-17T08:11:08.075Z,75.90
2018-12-17T08:13:36.366Z,76.30
2018-12-17T08:16:04.741Z,72.10
2018-12-17T08:18:33.056Z,86.60
2018-12-17T08:21:01.392Z,65.45
2018-12-17T08:23:29.586Z,92.92
2018-12-17T08:25:57.885Z,85.50
2018-12-17T08:28:26.235Z,73.22
2018-12-17T08:30:54.494Z,87.10
2018-12-17T08:33:22.661Z,72.82
2018-12-17T08:35:50.793Z,96.00
2018-12-17T08:38:19.155Z,79.35
2018-12-17T08:40:47.316Z,83.67
2018-12-17T08:43:15.582Z,55.70
2018-12-17T08:45:43.759Z,67.92
2018-12-17T08:48:11.963Z,67.17
2018-12-17T08:50:40.271Z,65.40
2018-12-17T08:53:08.454Z,69.32
2018-12-17T08:55:36.697Z,74.03
2018-12-17T08:58:05.100Z,77.08
2018-12-17T09:00:33.333Z,62.78
2018-12-17T09:03:01.793Z,66.95
2018-12-17T09:05:29.985Z,83.52
2018-12-17T09:07:58.268Z,54.90
2018-12-17T09:10:26.434Z,61.37
2018-12-17T09:12:54.781Z,75.10
2018-12-17T09:15:23.055Z,80.53
2018-12-17T09:17:51.304Z,76.10
2018-12-17T09:20:20.436Z,67.22
2018-12-17T09:22:48.789Z,81.45
2018-12-17T09:25:17.219Z,77.97
2018-12-17T09:27:46.300Z,61.37
2018-12-17T09:30:18.244Z,80.40
2018-12-17T09:32:44.947Z,76.20
2018-12-17T09:36:37.604Z,80.77
2018-12-17T09:39:07.542Z,49.42
2018-12-17T09:41:35.981Z,57.03
2018-12-17T09:44:04.362Z,65.62
2018-12-17T09:46:32.877Z,68.00
2018-12-17T09:49:01.570Z,64.47
2018-12-17T09:51:29.892Z,67.78
2018-12-17T09:53:58.813Z,52.03
2018-12-17T09:56:26.998Z,54.67
2018-12-17T09:58:55.251Z,49.73
2018-12-17T10:01:23.487Z,60.67
2018-12-17T10:03:51.691Z,63.30
2018-12-17T10:06:19.920Z,51.25
2018-12-17T10:08:48.154Z,56.75
2018-12-17T10:11:16.352Z,29.07
2018-12-17T10:13:44.643Z,52.58
2018-12-17T10:16:12.901Z,53.75
2018-12-17T10:18:41.098Z,49.15
2018-12-17T10:21:09.975Z,45.88
2018-12-17T10:23:38.688Z,39.90
2018-12-17T10:26:07.042Z,48.02
2018-12-17T10:28:35.244Z,46.00
2018-12-17T10:31:03.618Z,34.58
2018-12-17T10:33:31.861Z,37.48
2018-12-17T10:36:00.324Z,26.70
2018-12-17T10:38:29.906Z,37.35
2018-12-17T10:40:58.142Z,33.30
2018-12-17T10:43:26.396Z,24.25
2018-12-17T10:45:54.597Z,27.85
2018-12-17T10:48:22.907Z,34.00
2018-12-17T10:50:51.255Z,26.17
2018-12-17T10:53:19.534Z,39.75
2018-12-17T10:55:47.756Z,39.85
2018-12-17T10:58:15.954Z,13.78
2018-12-17T11:00:49.811Z,32.15
2018-12-17T11:03:22.235Z,30.57
2018-12-17T11:05:51.785Z,26.82
2018-12-17T11:08:19.961Z,29.82
2018-12-17T11:13:22.807Z,32.08
2018-12-17T11:15:50.979Z,41.05
2018-12-17T11:18:19.404Z,28.05
2018-12-17T11:20:47.650Z,31.30
2018-12-17T11:23:15.836Z,38.28
2018-12-17T11:25:44.099Z,32.33
2018-12-17T11:28:12.313Z,40.73
2018-12-17T11:30:46.370Z,34.88
2018-12-17T11:33:10.815Z,41.33
2018-12-17T11:35:39.023Z,45.40
2018-12-17T11:38:07.308Z,38.85
2018-12-17T11:40:35.474Z,27.30
2018-12-17T11:43:04.025Z,26.60
2018-12-17T11:45:32.764Z,32.98
2018-12-17T11:48:00.906Z,21.00
2018-12-17T11:50:29.141Z,32.23
2018-12-17T11:52:57.352Z,15.95
2018-12-17T11:55:25.596Z,26.55
2018-12-17T11:58:05.143Z,18.45
2018-12-17T12:00:33.455Z,20.65
2018-12-17T12:03:01.720Z,19.45
2018-12-17T12:05:30.190Z,20.80
2018-12-17T12:07:58.603Z,21.48
2018-12-17T12:10:26.764Z,23.55
2018-12-17T12:12:55.030Z,21.85
2018-12-17T12:15:23.290Z,22.55
2018-12-17T12:17:51.471Z,11.70
2018-12-17T12:20:19.738Z,17.87
2018-12-17T12:22:48.709Z,20.35
2018-12-17T12:25:16.896Z,15.43
2018-12-17T12:27:45.097Z,20.15
2018-12-17T12:30:13.797Z,18.55
2018-12-17T12:32:41.978Z,16.93
2018-12-17T12:35:11.241Z,14.63
2018-12-17T12:37:39.542Z,14.78
2018-12-17T12:40:08.323Z,18.12
2018-12-17T12:42:36.489Z,28.65
2018-12-17T12:45:05.664Z,29.05
2018-12-17T12:47:33.834Z,31.62
2018-12-17T12:50:02.348Z,23.00
2018-12-17T12:52:30.619Z,22.32
2018-12-17T12:54:58.779Z,25.52
2018-12-17T12:57:26.961Z,33.30
2018-12-17T12:59:55.167Z,28.70
2018-12-17T13:02:23.491Z,24.70
2018-12-17T13:04:51.807Z,28.32
2018-12-17T13:07:20.143Z,29.82
2018-12-17T13:09:48.463Z,27.07
2018-12-17T13:12:16.648Z,26.25
2018-12-17T13:14:44.887Z,30.48
2018-12-17T13:17:18.467Z,24.50
2018-12-17T13:19:46.628Z,22.37
2018-12-17T13:22:15.124Z,29.90
2018-12-17T13:24:49.757Z,28.32
2018-12-17T13:27:18.099Z,24.52
2018-12-17T13:29:46.261Z,27.67
2018-12-17T13:35:13.644Z,24.80
2018-12-17T13:37:41.920Z,28.45
2018-12-17T13:40:11.019Z,22.60
2018-12-17T13:42:39.309Z,30.25
2018-12-17T13:45:07.749Z,29.80
2018-12-17T13:47:35.948Z,32.50
2018-12-17T13:50:09.648Z,23.95
2018-12-17T13:52:43.367Z,27.15
2018-12-17T13:55:12.491Z,25.12
2018-12-17T13:57:40.732Z,22.02
2018-12-17T14:00:11.765Z,27.13
2018-12-17T14:02:40.478Z,20.37
2018-12-17T14:05:08.904Z,27.90
2018-12-17T14:07:37.231Z,31.50
2018-12-17T14:10:13.178Z,37.28
2018-12-17T14:12:41.563Z,32.03
2018-12-17T14:15:09.821Z,35.83
2018-12-17T14:17:40.215Z,38.42
2018-12-17T14:20:14.403Z,26.70
2018-12-17T14:22:42.563Z,34.08
2018-12-17T14:25:10.949Z,30.62
2018-12-17T14:27:39.526Z,31.82
2018-12-17T14:30:09.350Z,31.05
2018-12-17T14:32:37.911Z,33.42
2018-12-17T14:35:06.305Z,31.12
2018-12-17T14:37:36.595Z,32.93
2018-12-17T14:40:06.476Z,29.85
2018-12-17T14:42:34.657Z,38.78
2018-12-17T14:45:03.959Z,31.85
2018-12-17T14:47:32.503Z,40.23
2018-12-17T14:50:00.929Z,21.20
2018-12-17T14:52:29.112Z,35.52
2018-12-17T14:54:57.336Z,26.68
2018-12-17T14:57:25.702Z,35.75
2018-12-17T14:59:54.155Z,43.08
2018-12-17T15:02:22.467Z,31.68
2018-12-17T15:04:50.957Z,39.23
2018-12-17T15:07:19.254Z,35.40
2018-12-17T15:09:47.604Z,32.58
2018-12-17T15:12:15.976Z,28.75
2018-12-17T15:14:44.203Z,35.33
2018-12-17T15:17:12.526Z,42.85
2018-12-17T15:19:40.771Z,40.40
2018-12-17T15:22:09.051Z,40.55
2018-12-17T15:24:40.361Z,35.23
2018-12-17T15:27:07.501Z,41.02
2018-12-17T15:29:35.839Z,37.90
2018-12-17T15:32:04.106Z,31.20
2018-12-17T15:34:32.324Z,41.60
2018-12-17T15:37:00.656Z,34.08
2018-12-17T15:39:29.200Z,37.15
2018-12-17T15:41:57.517Z,35.10
2018-12-17T15:44:25.826Z,21.10
2018-12-17T15:46:54.161Z,26.77
2018-12-17T15:49:22.468Z,30.88
2018-12-17T15:51:50.739Z,24.50
2018-12-17T15:54:18.942Z,29.00
2018-12-17T15:56:47.115Z,29.00
2018-12-17T15:59:15.545Z,35.10
2018-12-17T16:01:49.865Z,41.58
2018-12-17T16:04:14.088Z,32.55
2018-12-17T16:06:42.321Z,34.67
2018-12-17T16:09:10.693Z,25.95
2018-12-17T16:11:38.954Z,33.05
2018-12-17T16:14:07.452Z,26.48
2018-12-17T16:16:35.664Z,33.75
2018-12-17T16:19:04.043Z,30.57
2018-12-17T16:21:32.519Z,34.38
2018-12-17T16:24:00.747Z,33.13
2018-12-17T16:26:29.183Z,26.07
2018-12-17T16:28:57.560Z,24.02
2018-12-17T16:31:25.837Z,30.65
2018-12-17T16:33:54.172Z,26.68
2018-12-17T16:36:23.628Z,28.05
2018-12-17T16:38:51.989Z,23.00
2018-12-17T16:41:20.204Z,31.52
2018-12-17T16:43:48.523Z,30.55
2018-12-17T16:46:17.314Z,33.45
2018-12-17T16:48:45.506Z,34.25
2018-12-17T16:51:13.715Z,30.40
2018-12-17T16:53:41.941Z,30.68
2018-12-17T16:56:10.215Z,43.75
2018-12-17T16:58:38.539Z,31.77
2018-12-17T17:01:06.753Z,31.37
2018-12-17T17:03:34.998Z,30.15
2018-12-17T17:06:03.292Z,34.08
2018-12-17T17:08:31.496Z,35.85
2018-12-17T17:10:59.769Z,32.93
2018-12-17T17:13:28.700Z,36.63
2018-12-17T17:15:56.878Z,32.17
2018-12-17T17:18:25.062Z,31.05
2018-12-17T17:20:53.291Z,32.23
2018-12-17T17:23:21.555Z,30.00
2018-12-17T17:25:49.810Z,29.65
2018-12-17T17:28:18.079Z,28.45
2018-12-17T17:30:46.335Z,30.72
2018-12-17T17:33:14.535Z,41.25
2018-12-17T17:35:42.978Z,37.48
2018-12-17T17:38:11.288Z,30.30
2018-12-17T17:40:39.646Z,32.73
2018-12-17T17:43:07.865Z,33.63
2018-12-17T17:45:36.239Z,40.20
2018-12-17T17:48:04.626Z,30.20
2018-12-17T17:50:33.009Z,39.95
2018-12-17T17:53:02.209Z,40.45
2018-12-17T17:55:30.413Z,37.70
2018-12-17T17:57:58.739Z,39.98
2018-12-17T18:00:26.964Z,28.62
2018-12-17T18:02:55.344Z,36.68
2018-12-17T18:05:23.565Z,36.65
2018-12-17T18:07:51.917Z,39.63
2018-12-17T18:10:20.208Z,40.00
2018-12-17T18:12:48.393Z,41.90
2018-12-17T18:15:16.675Z,35.28
2018-12-17T18:17:44.890Z,37.93
2018-12-17T18:20:13.285Z,35.23
2018-12-17T18:22:41.497Z,39.67
2018-12-17T18:25:09.936Z,41.00
2018-12-17T18:27:38.196Z,37.80
2018-12-17T18:30:06.778Z,32.13
2018-12-17T18:32:35.025Z,30.27
2018-12-17T18:35:03.335Z,32.83
2018-12-17T18:37:31.670Z,35.60
2018-12-17T18:40:00.111Z,40.20
2018-12-17T18:42:28.281Z,29.98
2018-12-17T18:44:56.667Z,30.85
2018-12-17T18:47:25.938Z,35.23
2018-12-17T18:49:54.468Z,23.80
2018-12-17T18:52:22.747Z,31.35
2018-12-17T18:54:50.971Z,30.02
2018-12-17T18:57:19.350Z,22.37
2018-12-17T18:59:47.578Z,23.67
2018-12-17T19:02:15.811Z,25.62
2018-12-17T19:04:44.051Z,32.90
2018-12-17T19:07:12.454Z,21.62
2018-12-17T19:09:40.780Z,35.95
2018-12-17T19:12:09.006Z,27.22
2018-12-17T19:14:37.269Z,20.95
2018-12-17T19:17:05.446Z,28.07
2018-12-17T19:19:33.740Z,16.02
2018-12-17T19:22:01.907Z,26.87
2018-12-17T19:24:30.502Z,13.55
2018-12-17T19:26:58.684Z,15.88
2018-12-17T19:29:26.963Z,27.58
2018-12-17T19:31:55.199Z,11.05
2018-12-17T19:34:23.387Z,34.20
2018-12-17T19:36:51.787Z,21.35
2018-12-17T19:39:19.976Z,19.67
2018-12-17T19:41:48.157Z,19.17
2018-12-17T19:44:16.411Z,27.32
2018-12-17T19:46:44.598Z,19.73
2018-12-17T19:49:12.793Z,28.90
2018-12-17T19:51:41.050Z,20.10
2018-12-17T19:54:09.276Z,17.55
2018-12-17T19:56:37.445Z,21.60
2018-12-17T19:59:05.671Z,20.37
2018-12-17T20:01:33.865Z,20.20
2018-12-17T20:04:02.138Z,18.45
2018-12-17T20:06:30.305Z,23.02
2018-12-17T20:08:58.474Z,30.27
2018-12-17T20:11:26.725Z,19.82
2018-12-17T20:13:54.927Z,23.35
2018-12-17T20:16:23.233Z,18.37
2018-12-17T20:18:51.397Z,20.30
2018-12-17T20:21:19.606Z,23.22
2018-12-17T20:23:47.773Z,21.35
2018-12-17T20:26:16.305Z,28.02
2018-12-17T20:31:19.249Z,12.40
2018-12-17T20:33:47.440Z,15.05
2018-12-17T20:36:15.872Z,22.00
2018-12-17T20:38:44.087Z,19.48
2018-12-17T20:41:13.171Z,17.98
2018-12-17T20:43:41.445Z,20.12
2018-12-17T20:46:09.630Z,23.02
2018-12-17T20:48:37.914Z,14.70
2018-12-17T20:51:06.268Z,14.83
2018-12-17T20:53:34.443Z,22.00
2018-12-17T20:56:02.921Z,21.07
2018-12-17T20:58:31.177Z,27.62
2018-12-17T21:00:59.719Z,20.52
2018-12-17T21:03:27.926Z,21.45
2018-12-17T21:05:56.147Z,20.90
2018-12-17T21:08:24.527Z,21.50
2018-12-17T21:10:52.790Z,22.50
2018-12-17T21:13:21.002Z,23.92
2018-12-17T21:15:49.223Z,24.00
2018-12-17T21:18:17.547Z,20.20
2018-12-17T21:20:45.770Z,24.30
2018-12-17T21:23:14.078Z,19.57
2018-12-17T21:25:42.301Z,27.25
2018-12-17T21:28:10.478Z,23.95
2018-12-17T21:30:38.711Z,25.75
2018-12-17T21:33:07.171Z,25.37
2018-12-17T21:35:35.422Z,22.35
2018-12-17T21:38:03.761Z,24.80
2018-12-17T21:40:31.961Z,17.67
2018-12-17T21:43:00.151Z,23.42
2018-12-17T21:45:28.432Z,19.95
2018-12-17T21:47:56.738Z,22.62
2018-12-17T21:50:25.017Z,22.05
2018-12-17T21:52:53.258Z,18.45
2018-12-17T21:55:21.455Z,23.42
2018-12-17T22:00:24.441Z,19.42
2018-12-17T22:02:52.740Z,19.48
2018-12-17T22:05:21.119Z,18.73
2018-12-17T22:10:25.968Z,19.45
2018-12-17T22:12:54.231Z,24.65
2018-12-17T22:15:22.459Z,30.00
2018-12-17T22:17:50.656Z,20.25
2018-12-17T22:20:18.984Z,25.10
2018-12-17T22:22:47.336Z,19.48
2018-12-17T22:25:15.618Z,19.20
2018-12-17T22:27:43.796Z,24.85
2018-12-17T22:30:12.057Z,18.87
2018-12-17T22:32:40.361Z,26.62
2018-12-17T22:35:08.810Z,22.25
2018-12-17T22:37:37.060Z,18.55
2018-12-17T22:40:05.943Z,22.67
2018-12-17T22:42:34.157Z,23.77
2018-12-17T22:45:02.420Z,23.35
2018-12-17T22:47:30.649Z,26.82
2018-12-17T22:49:58.791Z,26.45
2018-12-17T22:52:27.102Z,20.75
2018-12-17T22:54:55.332Z,31.17
2018-12-17T22:57:23.509Z,27.02
2018-12-17T22:59:51.723Z,26.40
2018-12-17T23:02:20.104Z,23.87
2018-12-17T23:04:48.322Z,19.42
2018-12-17T23:07:16.523Z,17.60
2018-12-17T23:09:56.090Z,16.30
2018-12-17T23:12:35.817Z,25.43
2018-12-17T23:15:15.401Z,21.27
2018-12-17T23:17:42.802Z,26.85
2018-12-17T23:20:11.267Z,28.32
2018-12-17T23:22:42.591Z,18.23
2018-12-17T23:25:10.930Z,17.67
2018-12-17T23:27:41.563Z,21.45
2018-12-17T23:30:10.134Z,13.98
2018-12-17T23:32:38.406Z,19.80
2018-12-17T23:35:08.039Z,24.75
2018-12-17T23:37:36.284Z,24.50
2018-12-17T23:40:05.106Z,17.05
2018-12-17T23:42:33.389Z,25.97
2018-12-17T23:45:01.569Z,22.42
2018-12-17T23:47:29.918Z,17.52
2018-12-17T23:49:58.138Z,20.37
2018-12-17T23:52:26.321Z,22.13
2018-12-17T23:54:54.492Z,16.97
2018-12-17T23:57:22.624Z,22.67
2018-12-17T23:59:50.879Z,20.62
